Time;durP1;ratioP1;P1;durP2;ratioP2;P2;SDS_P1;SDS_P2;PMS_P1;PMS_P2;Temp;Humidity;BMP_temperature;BMP_pressure;BME280_temperature;BME280_humidity;BME280_pressure;Samples;Min_cycle;Max_cycle;Signal;HPM_P1;HPM_P2
2023/10/17 00:02:06;;;;;;;7.80;1.45;;;;;;;7.00;100.00;101404.53;5013129;28;20026;-76
2023/10/17 00:04:35;;;;;;;7.18;2.03;;;;;;;7.02;100.00;101410.56;5015684;28;20033;-74
2023/10/17 00:07:02;;;;;;;3.80;1.40;;;;;;;6.94;100.00;101371.34;5049031;28;20065;-75
2023/10/17 00:09:30;;;;;;;4.18;1.35;;;;;;;7.05;100.00;101317.41;5018186;28;20400;-76
2023/10/17 00:14:45;;;;;;;3.60;1.27;;;;;;;7.18;100.00;101302.13;5017674;28;20037;-77
2023/10/17 00:17:14;;;;;;;5.32;1.58;;;;;;;7.25;100.00;101299.81;5017884;28;20427;-76
2023/10/17 00:19:41;;;;;;;3.08;1.38;;;;;;;7.32;100.00;101313.44;5015018;28;20022;-77
2023/10/17 00:22:09;;;;;;;10.48;2.13;;;;;;;7.29;100.00;101350.88;5016895;28;20042;-75
2023/10/17 00:24:34;;;;;;;3.83;2.05;;;;;;;7.28;100.00;101365.97;5018759;28;20379;-77
2023/10/17 00:26:59;;;;;;;5.57;1.90;;;;;;;7.21;100.00;101370.09;5050026;28;20121;-77
2023/10/17 00:29:26;;;;;;;5.73;1.50;;;;;;;7.19;100.00;101387.97;5049608;28;20079;-78
2023/10/17 00:31:51;;;;;;;12.10;1.27;;;;;;;7.29;100.00;101419.94;4998450;28;20096;-75
2023/10/17 00:34:25;;;;;;;2.25;1.30;;;;;;;7.29;100.00;101423.44;5000289;28;20025;-76
2023/10/17 00:36:51;;;;;;;2.20;1.20;;;;;;;7.36;100.00;101447.69;5017994;28;20100;-75
2023/10/17 00:39:31;;;;;;;6.80;2.17;;;;;;;7.37;100.00;101452.00;5019712;28;20102;-79
2023/10/17 00:44:40;;;;;;;3.67;1.17;;;;;;;7.27;100.00;101443.13;5015452;28;20029;-77
2023/10/17 00:47:18;;;;;;;6.65;1.77;;;;;;;7.16;100.00;101412.97;4983124;28;20042;-76
2023/10/17 00:49:44;;;;;;;4.85;1.05;;;;;;;7.08;100.00;101369.41;5010557;28;20041;-75
2023/10/17 00:52:24;;;;;;;2.50;1.10;;;;;;;7.32;100.00;101401.09;5017031;28;20076;-76
2023/10/17 00:54:51;;;;;;;2.53;0.82;;;;;;;7.40;100.00;101411.94;5045366;28;20037;-75
2023/10/17 00:57:17;;;;;;;1.45;0.73;;;;;;;7.42;100.00;101407.31;5016932;28;20201;-78
2023/10/17 00:59:50;;;;;;;2.38;1.33;;;;;;;7.41;100.00;101426.91;5010096;28;20412;-76
2023/10/17 01:02:16;;;;;;;3.28;1.00;;;;;;;7.32;100.00;101419.69;4999266;28;20076;-79
2023/10/17 01:04:44;;;;;;;4.50;0.95;;;;;;;7.41;100.00;101456.13;5014392;28;20580;-75
2023/10/17 01:07:12;;;;;;;3.83;1.00;;;;;;;7.46;100.00;101471.69;5016874;28;20258;-76
2023/10/17 01:09:38;;;;;;;4.90;1.00;;;;;;;7.31;100.00;101441.91;5013884;28;20041;-76
2023/10/17 01:12:09;;;;;;;3.03;1.20;;;;;;;7.45;100.00;101452.25;5047578;28;20030;-76
2023/10/17 01:14:35;;;;;;;1.38;0.90;;;;;;;7.47;100.00;101437.03;5048727;28;20052;-75
2023/10/17 01:17:05;;;;;;;3.42;0.80;;;;;;;7.46;100.00;101430.00;5020549;28;20532;-76
2023/10/17 01:19:33;;;;;;;1.98;0.88;;;;;;;7.42;100.00;101431.22;5016172;28;20041;-76
2023/10/17 01:21:58;;;;;;;3.42;0.90;;;;;;;7.48;100.00;101429.91;5019565;28;20108;-77
2023/10/17 01:24:25;;;;;;;5.90;1.02;;;;;;;7.53;100.00;101433.03;5048840;28;20479;-76
2023/10/17 01:26:51;;;;;;;4.80;1.52;;;;;;;7.52;100.00;101452.59;5046526;28;20044;-75
2023/10/17 01:29:18;;;;;;;1.60;0.90;;;;;;;7.46;100.00;101483.16;5049228;28;20034;-77
2023/10/17 01:31:44;;;;;;;4.15;0.98;;;;;;;7.35;100.00;101464.56;5008207;28;20059;-76
2023/10/17 01:34:11;;;;;;;6.82;1.48;;;;;;;7.38;100.00;101467.00;5015655;28;20034;-76
2023/10/17 01:36:42;;;;;;;4.68;1.00;;;;;;;7.47;100.00;101484.84;5051796;28;20116;-78
2023/10/17 01:39:10;;;;;;;3.33;1.52;;;;;;;7.43;100.00;101486.06;5050175;28;20041;-77
2023/10/17 01:41:38;;;;;;;3.38;1.10;;;;;;;7.45;100.00;101492.09;5008335;28;20168;-76
2023/10/17 01:44:04;;;;;;;3.38;1.10;;;;;;;7.51;100.00;101514.66;5045825;28;20377;-76
2023/10/17 01:46:29;;;;;;;1.85;1.00;;;;;;;7.40;100.00;101507.56;5050708;28;20033;-78
2023/10/17 01:48:56;;;;;;;4.00;0.90;;;;;;;7.48;100.00;101513.09;5051642;28;20029;-76
2023/10/17 01:51:24;;;;;;;4.05;0.90;;;;;;;7.49;100.00;101503.31;5020460;28;20443;-78
2023/10/17 01:53:50;;;;;;;4.43;1.13;;;;;;;7.40;100.00;101478.34;5020416;28;20540;-75
2023/10/17 01:56:17;;;;;;;4.20;1.30;;;;;;;7.51;100.00;101482.78;5016905;28;20488;-76
2023/10/17 01:58:50;;;;;;;1.55;0.88;;;;;;;7.57;100.00;101483.13;5048262;28;20305;-76
2023/10/17 02:01:24;;;;;;;4.18;0.93;;;;;;;7.52;100.00;101468.53;5005085;28;20117;-76
2023/10/17 02:04:12;;;;;;;2.80;0.70;;;;;;;7.50;100.00;101466.00;5039397;28;20497;-76
2023/10/17 02:06:42;;;;;;;5.20;1.00;;;;;;;7.54;100.00;101467.44;5023850;28;20133;-77
2023/10/17 02:12:00;;;;;;;6.72;1.55;;;;;;;7.60;100.00;101485.53;5044119;28;20049;-76
2023/10/17 02:14:26;;;;;;;5.95;1.10;;;;;;;7.54;100.00;101478.06;5022677;28;20034;-76
2023/10/17 02:16:51;;;;;;;3.28;0.70;;;;;;;7.48;100.00;101472.41;5020259;28;20523;-75
2023/10/17 02:19:19;;;;;;;4.53;1.40;;;;;;;7.47;100.00;101466.25;5047617;28;20042;-76
2023/10/17 02:21:49;;;;;;;3.17;0.75;;;;;;;7.41;100.00;101373.75;5042264;28;20279;-76
2023/10/17 02:24:19;;;;;;;1.88;0.70;;;;;;;7.54;100.00;101379.75;5016520;28;20417;-75
2023/10/17 02:27:30;;;;;;;3.28;1.13;;;;;;;7.54;100.00;101318.66;5038138;28;20041;-76
2023/10/17 02:29:31;;;;;;;7.88;1.08;;;;;;;7.56;100.00;101298.09;5012635;28;20056;-76
2023/10/17 02:31:58;;;;;;;3.80;0.73;;;;;;;7.65;100.00;101314.22;5050600;28;20021;-77
2023/10/17 02:34:29;;;;;;;8.90;1.00;;;;;;;7.61;100.00;101317.16;5020254;28;20021;-77
2023/10/17 02:36:55;;;;;;;4.95;1.23;;;;;;;7.64;100.00;101333.81;5050996;28;20037;-76
2023/10/17 02:39:22;;;;;;;5.53;1.30;;;;;;;7.68;100.00;101319.28;5013819;28;20514;-81
2023/10/17 02:41:57;;;;;;;6.57;0.97;;;;;;;7.60;100.00;101304.81;5017660;28;20033;-76
2023/10/17 02:44:24;;;;;;;7.25;1.13;;;;;;;7.54;100.00;101315.97;5016631;28;20025;-75
2023/10/17 02:46:51;;;;;;;1.38;0.60;;;;;;;7.47;100.00;101280.28;5054395;28;20037;-76
2023/10/17 02:49:16;;;;;;;;;;;;;;;7.48;100.00;101276.63;5015805;28;20568;-79
2023/10/17 02:51:45;;;;;;;;;;;;;;;7.48;100.00;101294.41;5046412;28;19960;-79
2023/10/17 02:54:14;;;;;;;5.10;0.90;;;;;;;7.33;100.00;101251.38;5039477;28;19921;-77
2023/10/17 02:56:46;;;;;;;4.03;1.02;;;;;;;7.34;100.00;101221.19;5018992;28;20037;-76
2023/10/17 02:59:13;;;;;;;3.88;0.75;;;;;;;7.37;100.00;101244.81;5016515;28;20084;-77
2023/10/17 03:01:42;;;;;;;6.55;1.13;;;;;;;7.28;100.00;101267.69;5017048;28;20021;-76
2023/10/17 03:04:09;;;;;;;7.63;1.08;;;;;;;7.25;100.00;101301.63;5018207;28;20087;-77
2023/10/17 03:06:42;;;;;;;5.30;1.10;;;;;;;7.11;100.00;101295.63;5049530;28;20022;-76
2023/10/17 03:09:16;;;;;;;0.80;0.60;;;;;;;7.12;100.00;101323.88;5048169;28;20124;-76
2023/10/17 03:11:51;;;;;;;1.83;0.85;;;;;;;7.08;100.00;101340.19;5047132;28;20596;-77
2023/10/17 03:14:22;;;;;;;7.07;1.13;;;;;;;7.03;100.00;101340.56;5043089;28;20029;-76
2023/10/17 03:16:54;;;;;;;5.35;0.80;;;;;;;7.06;100.00;101361.56;5042480;28;20037;-77
2023/10/17 03:19:26;;;;;;;4.22;1.45;;;;;;;7.03;100.00;101387.53;5047144;28;20034;-75
2023/10/17 03:21:54;;;;;;;2.80;1.35;;;;;;;7.02;100.00;101397.28;5016954;28;20057;-77
2023/10/17 03:27:08;;;;;;;2.85;0.77;;;;;;;7.01;100.00;101440.75;5011253;28;20453;-78
2023/10/17 03:29:41;;;;;;;4.80;0.85;;;;;;;6.93;100.00;101449.31;5048879;28;20099;-75
2023/10/17 03:32:11;;;;;;;3.80;1.38;;;;;;;6.96;100.00;101477.44;5018564;28;20156;-78
2023/10/17 03:34:37;;;;;;;1.63;0.93;;;;;;;6.95;100.00;101486.34;5005983;28;20034;-78
2023/10/17 03:37:26;;;;;;;2.20;0.95;;;;;;;6.93;100.00;101499.75;5015804;28;20499;-77
2023/10/17 03:39:57;;;;;;;5.50;0.80;;;;;;;6.93;100.00;101521.00;5050669;28;20126;-78
2023/10/17 03:45:13;;;;;;;2.72;0.95;;;;;;;6.96;100.00;101546.47;5017289;28;20045;-78
2023/10/17 03:47:53;;;;;;;3.03;1.02;;;;;;;6.92;100.00;101547.66;5021082;28;20037;-76
2023/10/17 03:50:31;;;;;;;3.40;1.00;;;;;;;6.94;100.00;101551.03;5014096;28;20042;-77
2023/10/17 03:53:07;;;;;;;2.90;0.80;;;;;;;6.98;100.00;101555.16;5022050;28;20091;-77
2023/10/17 03:55:35;;;;;;;2.92;1.23;;;;;;;6.99;100.00;101567.44;5021072;28;20041;-78
2023/10/17 03:58:08;;;;;;;4.25;0.82;;;;;;;6.96;100.00;101555.25;5021406;28;20373;-77
2023/10/17 04:00:41;;;;;;;1.55;0.80;;;;;;;6.96;100.00;101559.72;5016843;28;20062;-75
2023/10/17 04:03:11;;;;;;;2.80;0.93;;;;;;;6.93;100.00;101554.63;5020980;28;20099;-75
2023/10/17 04:05:38;;;;;;;4.90;1.20;;;;;;;6.88;100.00;101554.16;5022192;28;20036;-76
2023/10/17 04:08:05;;;;;;;4.27;1.47;;;;;;;6.76;100.00;101540.88;5020702;28;20247;-76
2023/10/17 04:10:40;;;;;;;4.63;1.52;;;;;;;6.69;100.00;101525.53;5007703;28;20029;-76
2023/10/17 04:13:34;;;;;;;6.75;1.25;;;;;;;6.75;100.00;101546.31;5020426;28;20045;-76
2023/10/17 04:15:54;;;;;;;1.80;1.10;;;;;;;6.71;100.00;101544.84;5007333;28;20034;-76
2023/10/17 04:18:22;;;;;;;2.30;0.88;;;;;;;6.68;100.00;101545.94;5019086;28;20073;-76
2023/10/17 04:20:48;;;;;;;5.82;1.00;;;;;;;6.80;100.00;101562.72;5021361;28;20484;-77
2023/10/17 04:23:21;;;;;;;12.07;2.27;;;;;;;6.67;100.00;101549.56;5019116;28;20030;-77
2023/10/17 04:25:54;;;;;;;5.85;1.38;;;;;;;6.83;100.00;101578.41;5014117;28;20115;-78
2023/10/17 04:28:19;;;;;;;5.28;1.38;;;;;;;6.93;100.00;101590.03;5017475;28;20524;-76
2023/10/17 04:30:47;;;;;;;3.67;1.40;;;;;;;6.95;100.00;101585.44;5021658;28;20025;-76
2023/10/17 04:33:13;;;;;;;6.32;2.30;;;;;;;6.90;100.00;101579.63;5019380;28;20038;-76
2023/10/17 04:35:53;;;;;;;4.25;1.92;;;;;;;7.02;100.00;101599.06;5020990;28;20040;-76
2023/10/17 04:40:54;;;;;;;3.25;1.00;;;;;;;7.11;100.00;101600.16;5021878;28;20024;-76
2023/10/17 04:43:44;;;;;;;8.20;1.65;;;;;;;7.18;100.00;101612.00;5018588;28;20034;-75
2023/10/17 04:46:09;;;;;;;3.83;1.25;;;;;;;7.28;100.00;101614.78;5017926;28;20049;-76
2023/10/17 04:49:06;;;;;;;2.10;1.27;;;;;;;7.40;100.00;101609.38;5019718;28;20036;-76
2023/10/17 04:51:25;;;;;;;6.32;1.40;;;;;;;7.33;100.00;101588.72;5017170;28;20517;-76
2023/10/17 04:53:51;;;;;;;4.53;1.45;;;;;;;7.37;100.00;101591.03;5022796;28;20040;-76
2023/10/17 04:56:23;;;;;;;5.38;1.63;;;;;;;7.39;100.00;101591.72;5021217;28;20025;-79
2023/10/17 04:58:56;;;;;;;2.03;1.05;;;;;;;7.48;100.00;101584.84;5014182;28;20040;-77
2023/10/17 05:01:41;;;;;;;7.93;2.70;;;;;;;7.61;100.00;101580.25;5018008;28;20030;-77
2023/10/17 05:04:20;;;;;;;5.13;1.83;;;;;;;7.67;100.00;101588.69;5019595;28;20033;-77
2023/10/17 05:07:13;;;;;;;4.63;1.58;;;;;;;7.70;100.00;101584.00;5016282;28;20043;-76
2023/10/17 06:18:17;;;;;;;8.07;2.35;;;;;;;8.15;100.00;101434.09;5019483;28;20033;-78
2023/10/17 06:30:05;;;;;;;8.98;2.42;;;;;;;8.34;100.00;101444.00;5014147;28;20052;-75
2023/10/17 06:31:56;;;;;;;5.85;3.25;;;;;;;8.26;100.00;101441.97;5014537;28;20103;-75
2023/10/17 06:34:23;;;;;;;7.38;2.25;;;;;;;8.20;100.00;101410.59;5017673;28;20092;-77
2023/10/17 06:36:50;;;;;;;6.50;2.38;;;;;;;8.20;100.00;101357.38;5019716;28;20393;-76
2023/10/17 06:39:17;;;;;;;5.78;2.33;;;;;;;8.43;100.00;101372.22;5018045;28;20038;-76
2023/10/17 06:41:44;;;;;;;7.65;1.83;;;;;;;8.46;100.00;101371.13;5021111;28;20408;-76
2023/10/17 06:44:11;;;;;;;4.90;2.03;;;;;;;8.11;100.00;101239.34;5019026;28;20037;-77
2023/10/17 06:46:40;;;;;;;8.40;1.70;;;;;;;8.30;100.00;101229.75;5018374;28;20085;-77
2023/10/17 06:49:28;;;;;;;8.98;2.25;;;;;;;8.51;100.00;101277.59;5022011;28;20445;-75
2023/10/17 06:52:07;;;;;;;2.90;1.33;;;;;;;8.58;100.00;101302.66;5000328;28;20041;-75
2023/10/17 06:54:40;;;;;;;5.13;1.60;;;;;;;8.73;100.00;101329.75;5043975;28;20062;-75
2023/10/17 06:57:18;;;;;;;10.43;1.60;;;;;;;8.81;100.00;101335.25;5017044;28;20120;-75
2023/10/17 07:02:34;;;;;;;10.07;2.42;;;;;;;8.72;100.00;101265.00;5014657;28;20040;-77
2023/10/17 07:05:01;;;;;;;3.78;1.25;;;;;;;8.56;100.00;101124.47;5022513;28;20032;-75
2023/10/17 07:07:40;;;;;;;8.43;1.35;;;;;;;8.80;100.00;101068.16;5016531;28;20457;-78
2023/10/17 07:10:37;;;;;;;5.93;1.13;;;;;;;8.91;100.00;100970.44;5019189;28;20095;-75
2023/10/17 07:13:41;;;;;;;7.88;1.35;;;;;;;9.03;100.00;100971.94;5012178;28;20037;-75
2023/10/17 07:16:12;;;;;;;3.08;1.30;;;;;;;9.16;100.00;100953.78;5005485;28;20557;-78
2023/10/17 07:18:51;;;;;;;3.58;1.15;;;;;;;9.02;100.00;100861.06;5018190;28;20401;-76
2023/10/17 07:21:23;;;;;;;3.22;0.90;;;;;;;9.22;100.00;100897.25;5017504;28;20081;-79
2023/10/17 07:23:54;;;;;;;3.85;1.00;;;;;;;9.27;100.00;100857.69;5012483;28;20042;-75
2023/10/17 07:28:55;;;;;;;6.00;1.10;;;;;;;9.30;100.00;101016.41;5018563;28;20037;-76
2023/10/17 07:31:25;;;;;;;6.97;1.25;;;;;;;9.34;100.00;100948.53;5014665;28;20030;-76
2023/10/17 07:36:36;;;;;;;5.55;1.00;;;;;;;9.20;100.00;100871.75;5009968;28;20025;-77
2023/10/17 07:39:06;;;;;;;4.97;1.10;;;;;;;9.32;100.00;100859.03;5012702;28;20460;-76
2023/10/17 07:41:36;;;;;;;4.25;0.70;;;;;;;9.42;100.00;100804.69;5022264;28;20096;-78
2023/10/17 07:44:08;;;;;;;4.82;1.15;;;;;;;9.33;100.00;100592.47;5017779;28;20037;-79
2023/10/17 07:46:34;;;;;;;4.85;1.13;;;;;;;9.45;100.00;100598.34;5016188;28;20045;-75
2023/10/17 07:49:06;;;;;;;3.75;0.88;;;;;;;9.32;100.00;100497.56;5017804;28;20017;-76
2023/10/17 07:51:32;;;;;;;3.38;0.65;;;;;;;9.34;100.00;100436.09;5016921;28;20638;-77
2023/10/17 07:53:58;;;;;;;;;;;;;;;9.60;100.00;100484.81;5020262;28;20362;-75
2023/10/17 07:56:25;;;;;;;5.07;0.93;;;;;;;9.58;100.00;100555.28;5014228;28;19913;-75
2023/10/17 07:58:59;;;;;;;4.70;1.10;;;;;;;9.71;100.00;100662.28;5020479;28;20049;-75
2023/10/17 08:01:31;;;;;;;4.82;1.05;;;;;;;9.57;100.00;100751.66;5013315;28;20030;-76
2023/10/17 08:04:13;;;;;;;7.50;2.33;;;;;;;9.53;100.00;100742.31;5018102;28;20037;-76
2023/10/17 08:06:40;;;;;;;6.38;2.22;;;;;;;9.27;100.00;100518.50;5020095;28;20120;-75
2023/10/17 08:09:17;;;;;;;5.05;1.23;;;;;;;9.38;100.00;100427.63;5016453;28;20025;-78
2023/10/17 08:11:43;;;;;;;7.13;0.80;;;;;;;9.66;100.00;100315.41;5019874;28;20495;-75
2023/10/17 08:14:11;;;;;;;5.17;1.27;;;;;;;10.03;100.00;100418.06;5016503;28;20017;-75
2023/10/17 08:16:40;;;;;;;4.25;0.85;;;;;;;10.65;100.00;100559.84;5018203;28;20037;-77
2023/10/17 08:19:21;;;;;;;6.45;1.05;;;;;;;10.86;100.00;100321.63;5020093;28;20304;-76
2023/10/17 08:24:26;;;;;;;2.95;0.90;;;;;;;11.09;100.00;100343.03;5018772;28;20100;-76
2023/10/17 08:27:12;;;;;;;7.45;1.00;;;;;;;11.04;100.00;100336.56;5020183;28;20080;-76
2023/10/17 08:29:37;;;;;;;3.83;1.98;;;;;;;10.39;100.00;100113.50;5021143;28;20543;-75
2023/10/17 08:32:14;;;;;;;;;;;;;;;10.37;100.00;100097.66;5020917;28;20070;-75
2023/10/17 08:34:43;;;;;;;4.25;1.00;;;;;;;10.61;100.00;100278.19;5049705;28;19924;-77
2023/10/17 08:37:08;;;;;;;3.28;0.75;;;;;;;10.50;100.00;100183.31;5019920;28;20028;-76
2023/10/17 08:42:11;;;;;;;3.03;0.90;;;;;;;11.20;100.00;100339.97;5020703;28;20084;-77
2023/10/17 08:44:39;;;;;;;3.35;0.90;;;;;;;10.94;100.00;100059.00;5022611;28;20025;-75
2023/10/17 08:47:05;;;;;;;2.88;0.77;;;;;;;11.10;100.00;100114.97;5022065;28;20057;-75
2023/10/17 08:49:31;;;;;;;5.63;0.70;;;;;;;11.17;100.00;100064.31;5021167;28;20128;-78
2023/10/17 08:52:00;;;;;;;8.43;1.00;;;;;;;11.77;100.00;100213.00;5029239;28;20481;-76
2023/10/17 08:54:29;;;;;;;3.38;0.90;;;;;;;11.80;100.00;99918.47;5026985;28;20602;-78
2023/10/17 08:56:55;;;;;;;3.45;0.80;;;;;;;11.41;100.00;99940.25;5018624;28;20508;-76
2023/10/17 08:59:55;;;;;;;1.67;0.95;;;;;;;11.95;100.00;100161.03;5028047;28;20052;-78
2023/10/17 09:02:17;;;;;;;6.78;0.80;;;;;;;11.67;100.00;100126.06;5029452;28;20029;-80
2023/10/17 09:04:43;;;;;;;2.75;1.77;;;;;;;11.44;100.00;99928.34;5028391;28;20041;-78
2023/10/17 09:07:09;;;;;;;2.40;0.68;;;;;;;11.66;100.00;100055.72;5029605;28;20095;-76
2023/10/17 09:09:34;;;;;;;4.88;0.80;;;;;;;11.82;100.00;100079.59;5029751;28;20481;-78
2023/10/17 09:12:01;;;;;;;5.05;0.95;;;;;;;11.52;100.00;100005.75;5029999;28;20040;-77
2023/10/17 09:14:29;;;;;;;4.07;0.88;;;;;;;11.80;100.00;100228.72;5005110;28;20032;-75
2023/10/17 09:17:48;;;;;;;8.05;1.10;;;;;;;11.62;100.00;99883.31;5029476;28;20412;-76
2023/10/17 09:19:52;;;;;;;2.85;0.95;;;;;;;12.09;100.00;100079.91;5021775;28;20389;-74
2023/10/17 09:22:44;;;;;;;1.75;0.60;;;;;;;11.43;100.00;99759.16;5029114;28;20030;-73
2023/10/17 09:25:19;;;;;;;8.00;1.10;;;;;;;11.67;100.00;99779.31;5028945;28;20225;-74
2023/10/17 09:27:49;;;;;;;2.13;0.65;;;;;;;11.82;100.00;99955.72;5028635;28;20046;-74
2023/10/17 09:30:17;;;;;;;9.02;2.05;;;;;;;11.77;100.00;99864.53;5026271;28;20030;-74
2023/10/17 09:32:42;;;;;;;5.25;0.95;;;;;;;11.35;100.00;99728.03;5028757;28;20048;-73
2023/10/17 09:35:16;;;;;;;4.53;0.60;;;;;;;11.33;100.00;99788.88;5027968;28;20400;-74
2023/10/17 09:37:50;;;;;;;4.57;1.10;;;;;;;11.60;100.00;99974.41;5027676;28;20099;-74
2023/10/17 09:40:33;;;;;;;8.85;1.20;;;;;;;13.03;100.00;100044.94;5027653;28;20045;-74
2023/10/17 09:43:00;;;;;;;3.33;0.90;;;;;;;12.80;100.00;99814.00;5018763;28;20033;-73
2023/10/17 09:45:31;;;;;;;3.72;1.42;;;;;;;12.18;100.00;99789.78;5027910;28;20120;-76
2023/10/17 09:48:04;;;;;;;5.32;1.13;;;;;;;12.21;100.00;99769.84;5024394;28;20469;-74
2023/10/17 09:50:33;;;;;;;2.10;0.70;;;;;;;11.95;100.00;99803.41;5027378;28;20059;-73
2023/10/17 09:53:04;;;;;;;8.35;1.10;;;;;;;12.41;100.00;99994.81;5027689;28;20048;-76
2023/10/17 09:55:30;;;;;;;8.77;1.00;;;;;;;14.25;100.00;100470.34;5027770;28;20492;-74
2023/10/17 09:57:59;;;;;;;;;;;;;;;14.69;99.53;99971.41;5028150;28;20022;-74
2023/10/17 10:00:56;;;;;;;5.40;0.80;;;;;;;16.02;95.65;99966.38;5059192;28;19913;-74
2023/10/17 10:03:24;;;;;;;4.35;1.27;;;;;;;14.74;92.72;99514.88;5012748;28;20179;-76
2023/10/17 10:05:53;;;;;;;2.95;1.10;;;;;;;14.35;92.72;99541.78;5027136;28;20021;-75
2023/10/17 10:08:32;;;;;;;4.65;1.02;;;;;;;12.80;92.04;99147.13;5026984;28;20044;-73
2023/10/17 10:10:59;;;;;;;6.57;1.52;;;;;;;13.37;95.55;99668.00;5026772;28;20091;-74
2023/10/17 10:13:25;;;;;;;5.93;1.20;;;;;;;12.78;93.26;99352.72;5026911;28;20433;-73
2023/10/17 10:15:58;;;;;;;;;;;;;;;13.60;98.25;100075.22;5027467;28;20048;-74
2023/10/17 10:18:32;;;;;;;4.30;1.50;;;;;;;13.02;97.78;99863.75;5026515;28;20399;-75
2023/10/17 10:20:58;;;;;;;3.35;1.17;;;;;;;12.85;95.84;99621.34;5024404;28;20480;-76
2023/10/17 10:23:39;;;;;;;5.10;1.33;;;;;;;11.61;96.38;99371.06;5026724;28;20025;-76
2023/10/17 10:26:19;;;;;;;4.60;1.10;;;;;;;13.36;95.55;99851.31;5026828;28;20033;-75
2023/10/17 10:28:47;;;;;;;5.03;1.13;;;;;;;14.38;92.82;99853.88;5026639;28;20021;-74
2023/10/17 10:31:30;;;;;;;3.90;0.85;;;;;;;15.38;90.63;99836.34;5026268;28;20044;-76
2023/10/17 10:33:58;;;;;;;8.45;1.15;;;;;;;14.74;85.88;99182.56;5025473;28;20416;-77
2023/10/17 10:36:24;;;;;;;4.47;0.70;;;;;;;14.68;85.38;99196.94;5026638;28;20108;-75
2023/10/17 10:38:54;;;;;;;2.42;0.82;;;;;;;14.65;85.36;99295.94;5026093;28;20029;-76
2023/10/17 10:41:22;;;;;;;2.55;0.88;;;;;;;16.28;84.25;99668.28;5026307;28;20087;-78
2023/10/17 10:43:49;;;;;;;2.85;0.90;;;;;;;16.29;80.85;99268.66;5026406;28;20440;-75
2023/10/17 10:46:17;;;;;;;4.82;1.02;;;;;;;16.77;79.06;99264.00;5025982;28;20032;-76
2023/10/17 10:48:47;;;;;;;7.60;1.23;;;;;;;17.75;78.17;99463.63;5025243;28;20030;-75
2023/10/17 10:51:15;;;;;;;4.38;1.40;;;;;;;17.05;75.35;98966.66;5025654;28;20029;-74
2023/10/17 10:53:41;;;;;;;2.88;0.88;;;;;;;16.48;77.55;99190.41;5025901;28;20411;-73
2023/10/17 10:56:11;;;;;;;4.97;0.90;;;;;;;16.57;76.54;99121.63;5025025;28;20041;-73
2023/10/17 10:58:47;;;;;;;3.10;0.90;;;;;;;17.12;75.19;99093.22;5025813;28;20029;-73
2023/10/17 11:01:13;;;;;;;;;;;;;;;16.57;76.31;99207.81;5026205;28;20048;-73
2023/10/17 11:03:43;;;;;;;2.58;0.77;;;;;;;15.93;75.34;98955.66;5014050;28;20008;-73
2023/10/17 11:06:09;;;;;;;3.25;0.88;;;;;;;17.41;76.99;99617.28;5006398;28;20394;-74
2023/10/17 11:08:43;;;;;;;2.40;1.05;;;;;;;16.81;71.39;98745.06;5005941;28;20030;-74
2023/10/17 11:11:19;;;;;;;6.35;0.88;;;;;;;16.54;70.93;98604.91;5010264;28;20037;-75
2023/10/17 11:13:54;;;;;;;4.68;0.80;;;;;;;16.09;70.13;98490.28;5005935;28;20026;-74
2023/10/17 11:16:25;;;;;;;4.28;0.95;;;;;;;16.66;69.55;98640.59;5018064;28;20771;-73
2023/10/17 11:18:51;;;;;;;10.55;1.65;;;;;;;15.95;69.61;98496.06;5023607;28;20043;-75
2023/10/17 11:21:19;;;;;;;6.68;1.08;;;;;;;16.21;70.39;98693.66;5015288;28;20112;-73
2023/10/17 11:23:50;;;;;;;5.55;1.45;;;;;;;16.55;71.88;99103.00;4999033;28;20095;-75
2023/10/17 11:26:19;;;;;;;5.47;1.08;;;;;;;16.87;70.60;99035.94;5004982;28;20400;-75
2023/10/17 11:28:51;;;;;;;2.05;0.75;;;;;;;18.24;69.37;99289.25;5005741;28;20080;-73
2023/10/17 11:31:27;;;;;;;5.90;0.80;;;;;;;17.76;66.04;98610.50;5005687;28;20132;-75
2023/10/17 11:33:56;;;;;;;5.30;0.85;;;;;;;16.84;65.66;98368.09;5014152;28;20042;-75
2023/10/17 11:36:25;;;;;;;4.15;0.82;;;;;;;17.68;67.71;99023.88;5012748;28;20050;-73
2023/10/17 11:38:56;;;;;;;2.65;0.70;;;;;;;16.80;66.14;98404.72;5005628;28;20028;-75
2023/10/17 11:41:29;;;;;;;2.75;0.70;;;;;;;17.33;67.38;98870.50;5013584;28;20037;-75
2023/10/17 11:43:55;;;;;;;2.65;0.75;;;;;;;15.74;67.20;98340.88;5012943;28;20026;-76
2023/10/17 11:46:28;;;;;;;2.20;1.10;;;;;;;15.29;68.85;98446.81;5024017;28;20445;-73
2023/10/17 11:48:54;;;;;;;5.95;1.40;;;;;;;15.82;70.19;98898.13;5011238;28;20108;-74
2023/10/17 11:51:28;;;;;;;3.50;1.00;;;;;;;15.70;72.50;99146.72;5006126;28;20907;-76
2023/10/17 11:54:07;;;;;;;5.38;1.35;;;;;;;16.19;74.44;99556.53;5021694;28;20034;-76
2023/10/17 11:56:39;;;;;;;3.17;0.95;;;;;;;17.47;70.56;99416.69;5022280;28;20042;-75
2023/10/17 11:59:10;;;;;;;3.83;0.82;;;;;;;16.01;70.45;98882.63;5006337;28;20041;-75
2023/10/17 12:01:37;;;;;;;3.88;1.20;;;;;;;14.86;68.85;98266.50;5018704;28;20128;-75
2023/10/17 12:04:06;;;;;;;;;;;;;;;16.52;71.10;99281.28;5022100;28;20061;-74
2023/10/17 12:06:33;;;;;;;4.32;1.02;;;;;;;16.65;69.19;99041.22;5020840;28;19939;-76
2023/10/17 12:08:58;;;;;;;2.33;0.60;;;;;;;17.05;68.98;99179.66;5024228;28;20497;-74
2023/10/17 12:11:26;;;;;;;3.90;0.70;;;;;;;16.88;69.78;99158.88;5011614;28;20026;-76
2023/10/17 12:13:52;;;;;;;6.90;0.88;;;;;;;18.07;67.86;99302.75;5028671;28;20044;-75
2023/10/17 12:16:23;;;;;;;1.27;0.65;;;;;;;18.19;67.70;99254.06;5024723;28;20041;-73
2023/10/17 12:18:49;;;;;;;5.10;0.65;;;;;;;18.05;66.32;98971.94;5013657;28;20034;-72
2023/10/17 12:21:15;;;;;;;3.83;0.70;;;;;;;17.59;66.61;98896.66;5026727;28;20032;-73
2023/10/17 12:23:41;;;;;;;4.80;0.50;;;;;;;17.52;66.20;98852.88;5012050;28;20045;-74
2023/10/17 12:26:13;;;;;;;2.38;0.70;;;;;;;17.33;66.75;98875.88;5019966;28;20029;-73
2023/10/17 12:28:41;;;;;;;2.28;0.73;;;;;;;16.71;67.10;98734.94;5020433;28;20469;-72
2023/10/17 12:31:10;;;;;;;1.65;0.75;;;;;;;17.95;66.72;99188.63;5014731;28;20029;-73
2023/10/17 12:33:36;;;;;;;5.78;0.88;;;;;;;16.78;65.36;98465.31;5007958;28;20030;-74
2023/10/17 12:36:04;;;;;;;3.63;1.05;;;;;;;16.73;68.69;99077.72;5016362;28;20044;-73
2023/10/17 12:38:33;;;;;;;2.55;0.88;;;;;;;16.44;67.33;98713.34;5016482;28;20037;-71
2023/10/17 12:41:06;;;;;;;3.97;1.30;;;;;;;17.36;67.81;99123.53;5016623;28;20030;-72
2023/10/17 12:43:39;;;;;;;3.65;0.80;;;;;;;18.12;66.52;99256.94;5018371;28;20476;-73
2023/10/17 12:46:05;;;;;;;3.20;0.70;;;;;;;16.22;64.98;98279.88;5027728;28;20154;-72
2023/10/17 12:48:30;;;;;;;3.43;1.53;;;;;;;16.69;66.57;98785.56;5009574;28;20478;-72
2023/10/17 12:50:55;;;;;;;2.33;0.70;;;;;;;16.87;67.81;99072.88;5016565;28;20589;-73
2023/10/17 12:53:21;;;;;;;2.57;0.73;;;;;;;16.17;66.38;98608.25;5012931;28;20030;-72
2023/10/17 12:55:47;;;;;;;2.95;0.70;;;;;;;16.33;67.44;98876.66;5012805;28;20037;-72
2023/10/17 12:58:12;;;;;;;3.40;0.63;;;;;;;16.96;67.64;99065.19;5018634;28;20029;-72
2023/10/17 13:00:39;;;;;;;3.40;0.80;;;;;;;16.39;66.48;98703.31;5022223;28;20255;-72
2023/10/17 13:03:06;;;;;;;1.30;0.43;;;;;;;15.23;68.37;98560.72;5020345;28;20049;-73
2023/10/17 13:05:32;;;;;;;3.47;0.68;;;;;;;16.15;69.50;99111.13;5002819;28;20039;-74
2023/10/17 13:07:57;;;;;;;4.50;1.73;;;;;;;16.69;70.79;99389.13;5020823;28;20491;-74
2023/10/17 13:10:22;;;;;;;1.73;0.60;;;;;;;17.22;71.14;99563.44;4984458;28;20035;-74
2023/10/17 13:12:48;;;;;;;4.82;0.63;;;;;;;16.63;67.60;98872.78;5023323;28;20029;-74
2023/10/17 13:15:16;;;;;;;5.70;0.90;;;;;;;16.51;67.43;98834.38;5016865;28;20048;-74
2023/10/17 13:17:43;;;;;;;3.42;0.90;;;;;;;17.27;68.74;99260.66;5020348;28;20040;-74
2023/10/17 13:20:10;;;;;;;2.08;0.80;;;;;;;17.04;68.22;99111.44;5018582;28;20037;-74
2023/10/17 13:22:41;;;;;;;2.78;0.57;;;;;;;17.07;69.37;99267.31;5051888;28;20489;-72
2023/10/17 13:25:10;;;;;;;5.80;0.90;;;;;;;17.53;67.38;99164.78;5019034;28;20030;-72
2023/10/17 13:27:37;;;;;;;2.88;0.70;;;;;;;17.91;69.01;99498.81;5019617;28;20412;-72
2023/10/17 13:30:04;;;;;;;4.85;1.48;;;;;;;17.17;68.42;99114.88;5019031;28;20041;-72
2023/10/17 13:32:31;;;;;;;4.05;0.80;;;;;;;17.26;68.75;99242.84;5021472;28;20145;-72